KSAT/SAT METAR and TAF weather

Enter ICAO airport designator
Station Type Date Time Source
KSAT METAR 2021/04/12 03:51 UTC NOAA

KSAT 120351Z 14005G15KT 10SM FEW250 23/14 A2973 RMK AO2 SLP052 T02330139


Station Type Date Time Source
KSAT Decoded METAR 2021/04/12 03:51 UTC NOAA

SAN ANTONIO INTERNATIONAL AIRPORT , TX, United States (KSAT) 29-32N 098-28W 243M
Apr 11, 2021 - 11:51 PM EDT / 2021.04.12 0351 UTC
Wind: from the SE (140 degrees) at 6 MPH (5 KT) gusting to 17 MPH (15 KT):0
Visibility: 10 mile(s):0
Sky conditions: mostly clear
Temperature: 73.9 F (23.3 C)
Dew Point: 57.0 F (13.9 C)
Relative Humidity: 55%
Pressure (altimeter): 29.73 in. Hg (1006 hPa)
ob: KSAT 120351Z 14005G15KT 10SM FEW250 23/14 A2973 RMK AO2 SLP052 T02330139
cycle: 4

Station Type Date Time Source
KSAT TAF 2021/04/11 20:36 UTC NOAA

TAF
AMD KSAT 111933Z 1120/1224 15011KT P6SM FEW250
FM120700 15006KT P6SM BKN012
FM120900 16009KT P6SM OVC006
FM121500 16008KT P6SM OVC012
FM121800 14007KT P6SM BKN015

Example: see airport list